createdAt,value
2024-03-19T13:47:09.621Z,46.91
2024-03-19T13:49:40.160Z,46.86
2024-03-19T13:52:12.270Z,47.12
2024-03-19T13:54:51.728Z,47.29
2024-03-19T13:57:29.113Z,47.31
2024-03-19T13:59:59.993Z,47.46
2024-03-19T14:02:31.939Z,48.29
2024-03-19T14:05:02.372Z,48.63
2024-03-19T14:07:35.975Z,48.55
2024-03-19T14:10:07.736Z,47.90
2024-03-19T14:12:39.810Z,46.97
2024-03-19T14:15:11.122Z,46.53
2024-03-19T14:17:46.891Z,46.65
2024-03-19T14:20:19.392Z,46.95
2024-03-19T14:22:52.460Z,46.87
2024-03-19T14:25:24.116Z,47.53
2024-03-19T14:27:54.296Z,47.56
2024-03-19T14:30:26.539Z,47.90
2024-03-19T14:33:00.514Z,47.75
2024-03-19T14:35:32.072Z,47.71
2024-03-19T14:38:02.614Z,47.57
2024-03-19T14:40:37.538Z,47.50
2024-03-19T14:43:11.127Z,47.53
2024-03-19T14:45:42.076Z,47.85
2024-03-19T14:48:14.520Z,47.73
2024-03-19T14:50:45.174Z,47.48
2024-03-19T14:53:17.329Z,47.35
2024-03-19T14:55:48.593Z,46.81
2024-03-19T14:58:20.186Z,46.52
2024-03-19T15:00:50.695Z,46.99
2024-03-19T15:03:22.541Z,47.16
2024-03-19T15:05:53.253Z,47.13
2024-03-19T15:08:25.162Z,46.87
2024-03-19T15:10:55.927Z,46.89
2024-03-19T15:13:27.921Z,46.70
2024-03-19T15:15:58.244Z,46.83
2024-03-19T15:18:29.995Z,47.09
2024-03-19T15:21:03.440Z,47.15
2024-03-19T15:23:35.875Z,46.69
2024-03-19T15:26:06.092Z,47.03
2024-03-19T15:28:38.258Z,47.44
2024-03-19T15:31:09.212Z,47.76
2024-03-19T15:33:41.051Z,47.49
2024-03-19T15:36:11.385Z,47.60
2024-03-19T15:38:43.441Z,47.96
2024-03-19T15:41:14.143Z,47.57
2024-03-19T15:43:46.031Z,47.46
2024-03-19T15:46:16.271Z,47.75
2024-03-19T15:48:48.221Z,47.94
2024-03-19T15:51:18.453Z,48.27
2024-03-19T15:53:50.208Z,48.28
2024-03-19T15:56:20.434Z,48.27
2024-03-19T15:58:52.480Z,47.89
2024-03-19T16:01:23.429Z,47.73
2024-03-19T16:03:55.296Z,48.00
2024-03-19T16:06:26.019Z,48.32
2024-03-19T16:08:58.408Z,48.62
2024-03-19T16:11:28.837Z,49.06
2024-03-19T16:14:00.676Z,49.37
2024-03-19T16:16:31.007Z,49.10
2024-03-19T16:19:02.793Z,49.15
2024-03-19T16:21:33.396Z,49.01
2024-03-19T16:24:08.608Z,49.38
2024-03-19T16:26:41.221Z,49.12
2024-03-19T16:29:11.744Z,49.02
2024-03-19T16:31:43.494Z,49.04
2024-03-19T16:34:14.748Z,49.34
2024-03-19T16:36:46.884Z,49.54
2024-03-19T16:39:17.330Z,49.74
2024-03-19T16:41:48.880Z,50.16
2024-03-19T16:44:19.413Z,50.71
2024-03-19T16:46:54.145Z,50.68
2024-03-19T16:49:27.026Z,51.29
2024-03-19T16:51:57.650Z,52.00
2024-03-19T16:54:29.200Z,52.09
2024-03-19T16:56:59.943Z,52.28
2024-03-19T16:59:31.496Z,52.46
2024-03-19T17:02:02.126Z,52.93
2024-03-19T17:04:35.219Z,53.11
2024-03-19T17:07:05.648Z,53.32
2024-03-19T17:09:37.308Z,53.50
2024-03-19T17:12:08.865Z,53.70
2024-03-19T17:14:40.618Z,53.87
2024-03-19T17:17:11.332Z,54.12
2024-03-19T17:19:43.107Z,54.32
2024-03-19T17:22:13.619Z,54.83
2024-03-19T17:24:45.275Z,55.15
2024-03-19T17:27:16.215Z,55.49
2024-03-19T17:29:47.892Z,56.08
2024-03-19T17:32:18.501Z,56.59
2024-03-19T17:34:50.264Z,56.38
2024-03-19T17:37:20.696Z,56.29
2024-03-19T17:39:52.444Z,56.49
2024-03-19T17:42:23.277Z,56.79
2024-03-19T17:44:55.136Z,57.20
2024-03-19T17:47:25.698Z,57.18
2024-03-19T17:49:57.728Z,56.89
2024-03-19T17:52:29.294Z,57.01
2024-03-19T17:55:01.357Z,57.35
2024-03-19T17:57:33.031Z,57.70
2024-03-19T18:00:08.376Z,57.57
2024-03-19T18:02:43.795Z,57.99
2024-03-19T18:05:16.786Z,58.13
2024-03-19T18:07:47.312Z,58.34
2024-03-19T18:10:20.122Z,58.73
2024-03-19T18:12:50.311Z,58.90
2024-03-19T18:15:24.534Z,58.84
2024-03-19T18:17:54.954Z,58.62
2024-03-19T18:20:28.376Z,58.62
2024-03-19T18:22:59.202Z,58.99
2024-03-19T18:25:33.001Z,59.00
2024-03-19T18:28:04.146Z,59.24
2024-03-19T18:30:35.893Z,59.23
2024-03-19T18:33:07.998Z,59.58
2024-03-19T18:35:39.931Z,59.77
2024-03-19T18:38:10.756Z,60.27
2024-03-19T18:40:43.848Z,60.25
2024-03-19T18:43:16.834Z,60.34
2024-03-19T18:45:48.713Z,60.52
2024-03-19T18:48:19.535Z,60.79
2024-03-19T18:50:51.193Z,60.95
2024-03-19T18:53:22.632Z,61.13
2024-03-19T18:55:54.499Z,61.17
2024-03-19T18:58:25.637Z,61.12
2024-03-19T19:00:57.301Z,60.93
2024-03-19T19:03:30.186Z,60.78
2024-03-19T19:06:02.147Z,60.62
2024-03-19T19:08:32.667Z,60.56
2024-03-19T19:11:04.223Z,60.79
2024-03-19T19:13:34.647Z,61.03
2024-03-19T19:16:06.813Z,60.97
2024-03-19T19:18:38.087Z,61.15
2024-03-19T19:21:09.413Z,61.37
2024-03-19T19:23:39.935Z,61.29
2024-03-19T19:26:11.385Z,61.35
2024-03-19T19:28:42.615Z,61.15
2024-03-19T19:31:14.904Z,61.19
2024-03-19T19:33:45.850Z,61.24
2024-03-19T19:36:17.599Z,61.40
2024-03-19T19:38:48.225Z,61.45
2024-03-19T19:41:20.301Z,61.55
2024-03-19T19:43:51.578Z,61.82
2024-03-19T19:46:24.164Z,62.11
2024-03-19T19:48:54.854Z,62.39
2024-03-19T19:51:26.726Z,62.73
2024-03-19T19:53:57.959Z,62.94
2024-03-19T19:56:29.924Z,63.12
2024-03-19T19:59:01.382Z,63.34
2024-03-19T20:01:34.195Z,63.61
2024-03-19T20:04:05.394Z,63.86
2024-03-19T20:06:37.167Z,63.82
2024-03-19T20:09:08.400Z,63.84
2024-03-19T20:11:39.952Z,63.94
2024-03-19T20:14:10.489Z,63.91
2024-03-19T20:16:42.650Z,63.90
2024-03-19T20:19:12.977Z,64.02
2024-03-19T20:21:45.139Z,64.03
2024-03-19T20:24:17.017Z,63.91
2024-03-19T20:26:48.767Z,64.00
2024-03-19T20:29:19.296Z,64.13
2024-03-19T20:31:51.458Z,63.96
2024-03-19T20:34:21.674Z,63.89
2024-03-19T20:36:54.153Z,64.04
2024-03-19T20:39:25.092Z,63.99
2024-03-19T20:41:57.084Z,63.66
2024-03-19T20:44:27.478Z,63.47
2024-03-19T20:47:00.364Z,63.62
2024-03-19T20:49:30.589Z,63.71
2024-03-19T20:52:02.541Z,63.59
2024-03-19T20:54:36.253Z,63.47
2024-03-19T20:57:08.517Z,63.45
2024-03-19T20:59:38.939Z,63.37
2024-03-19T21:02:12.219Z,63.30
2024-03-19T21:04:43.196Z,63.61
2024-03-19T21:07:14.935Z,63.72
2024-03-19T21:09:45.367Z,63.85
2024-03-19T21:12:17.061Z,64.07
2024-03-19T21:14:47.450Z,64.33
2024-03-19T21:17:19.101Z,64.42
2024-03-19T21:19:49.443Z,64.47
2024-03-19T21:22:22.662Z,64.37
2024-03-19T21:24:53.141Z,64.48
2024-03-19T21:27:24.904Z,64.66
2024-03-19T21:29:55.444Z,64.70
2024-03-19T21:32:27.598Z,64.88
2024-03-19T21:34:58.329Z,64.85
2024-03-19T21:37:32.177Z,64.79
2024-03-19T21:40:02.475Z,64.56
2024-03-19T21:42:34.628Z,64.40
2024-03-19T21:45:06.802Z,64.32
2024-03-19T21:47:39.061Z,64.34
2024-03-19T21:50:10.521Z,64.32
2024-03-19T21:52:41.970Z,64.31
2024-03-19T21:55:12.493Z,64.56
2024-03-19T21:57:44.041Z,64.52
2024-03-19T22:00:15.308Z,64.71
2024-03-19T22:02:46.851Z,64.77
2024-03-19T22:05:18.796Z,64.82
2024-03-19T22:07:51.897Z,64.73
2024-03-19T22:10:22.430Z,64.47
2024-03-19T22:12:53.882Z,64.44
2024-03-19T22:15:24.197Z,64.48
2024-03-19T22:17:55.947Z,64.62
2024-03-19T22:20:26.592Z,64.63
2024-03-19T22:22:58.246Z,64.83
2024-03-19T22:25:29.484Z,64.80
2024-03-19T22:28:01.861Z,65.00
2024-03-19T22:30:32.395Z,64.91
2024-03-19T22:33:04.727Z,64.98
2024-03-19T22:35:35.726Z,65.26
2024-03-19T22:38:07.455Z,65.41
2024-03-19T22:40:37.782Z,65.52
2024-03-19T22:43:09.450Z,65.70
2024-03-19T22:45:41.618Z,65.66
2024-03-19T22:48:13.461Z,65.71
2024-03-19T22:50:44.585Z,65.45
2024-03-19T22:53:16.273Z,65.51
2024-03-19T22:55:46.592Z,65.46
2024-03-19T22:58:18.205Z,65.64
2024-03-19T23:00:52.781Z,65.84
2024-03-19T23:03:24.628Z,65.74
2024-03-19T23:05:55.159Z,65.73
2024-03-19T23:08:26.904Z,65.49
